Astra Nomen — S7L2957 — position and weather

sailwx.info

Track history (hours):
 
Tides and Currents Weather Stations Pressure Air Temp Water Temp Dewpoint Dewpoint Depression Visibility Wind Speed Wind Dir Waves Ship Positions

Astra Nomen

Last reported at 2017-Nov-26 21:20 UTC. Time now 2018-Feb-25 04:01 UTC.
Position N 28°08' W 015°26'.
Warning: this ship's position is months out of date.

Length 11 m.

Type: Sailing vessel. MMSI: 664091000.

Date/timePositionNaut miles runAvg speedWind from/ knotsBaromVisibWave heightAir tempDewpointWater temp
2017-Nov-26 21:20N 28°08' W 015°26'1 3.8
2017-Nov-26 21:00N 28°07' W 015°24'2 4.0
2017-Nov-26 20:30N 28°09' W 015°24'1 2.7
2017-Nov-26 19:59N 28°11' W 015°24'1 2.7
2017-Nov-26 19:26N 28°11' W 015°26'2 4.5
2017-Nov-26 18:56N 28°12' W 015°28'2 4.8
2017-Nov-26 18:26N 28°12' W 015°31'2 4.9
2017-Nov-26 18:00N 28°12' W 015°33'3 5.1
2017-Nov-26 17:30N 28°12' W 015°36'2 4.8
2017-Nov-26 17:00N 28°12' W 015°39'  
2017-Nov-19 13:36N 28°08' W 015°26'0 1.5
2017-Nov-19 13:29N 28°08' W 015°25'2 2.9
2017-Nov-19 12:58N 28°06' W 015°25'2 3.3
2017-Nov-19 12:30N 28°08' W 015°26'0 0.0
2017-Nov-17 22:38N 28°08' W 015°26'0 0.0
2017-Nov-17 22:23N 28°08' W 015°26'2 4.2
2017-Nov-17 21:56N 28°06' W 015°24'3 5.1
2017-Nov-17 21:26N 28°04' W 015°23'3 5.2
2017-Nov-17 20:56N 28°01' W 015°22'3 4.9
2017-Nov-17 20:25N 27°59' W 015°21'2 4.2
2017-Nov-17 19:55N 27°57' W 015°20'2 4.4
2017-Nov-17 19:30N 27°55' W 015°20'  
Track history (hours):
 
Tides and Currents Weather Stations Pressure Air Temp Water Temp Dewpoint Dewpoint Depression Visibility Wind Speed Wind Dir Waves Ship Positions

Astra Nomen

Last reported at 2017-Nov-26 21:20 UTC. Time now 2018-Feb-25 04:01 UTC.
Position N 28°08' W 015°26'.
Warning: this ship's position is months out of date.

Length 11 m.

Type: Sailing vessel. MMSI: 664091000.

Date/timePositionNaut miles runAvg speedWind from/ knotsBaromVisibWave heightAir tempDewpointWater temp
2017-Nov-26 21:20N 28°08' W 015°26'1 3.8
2017-Nov-26 21:00N 28°07' W 015°24'2 4.0
2017-Nov-26 20:30N 28°09' W 015°24'1 2.7
2017-Nov-26 19:59N 28°11' W 015°24'1 2.7
2017-Nov-26 19:26N 28°11' W 015°26'2 4.5
2017-Nov-26 18:56N 28°12' W 015°28'2 4.8
2017-Nov-26 18:26N 28°12' W 015°31'2 4.9
2017-Nov-26 18:00N 28°12' W 015°33'3 5.1
2017-Nov-26 17:30N 28°12' W 015°36'2 4.8
2017-Nov-26 17:00N 28°12' W 015°39'  
2017-Nov-19 13:36N 28°08' W 015°26'0 1.5
2017-Nov-19 13:29N 28°08' W 015°25'2 2.9
2017-Nov-19 12:58N 28°06' W 015°25'2 3.3
2017-Nov-19 12:30N 28°08' W 015°26'0 0.0
2017-Nov-17 22:38N 28°08' W 015°26'0 0.0
2017-Nov-17 22:23N 28°08' W 015°26'2 4.2
2017-Nov-17 21:56N 28°06' W 015°24'3 5.1
2017-Nov-17 21:26N 28°04' W 015°23'3 5.2
2017-Nov-17 20:56N 28°01' W 015°22'3 4.9
2017-Nov-17 20:25N 27°59' W 015°21'2 4.2
2017-Nov-17 19:55N 27°57' W 015°20'2 4.4
2017-Nov-17 19:30N 27°55' W 015°20'  

Dump ship's entire track history